Time;durP1;ratioP1;P1;durP2;ratioP2;P2;SDS_P1;SDS_P2;PMS_P1;PMS_P2;Temp;Humidity;BMP_temperature;BMP_pressure;BME280_temperature;BME280_humidity;BME280_pressure;Samples;Min_cycle;Max_cycle;Signal;HPM_P1;HPM_P2
2022/09/29 00:00:26;;;;;;;11.03;1.43;;;5.70;99.90;;;;;;5078567;28;20297;-87
2022/09/29 00:02:53;;;;;;;0.67;0.67;;;5.60;99.90;;;;;;5079157;28;20190;-87
2022/09/29 00:05:19;;;;;;;1.03;1.03;;;5.70;99.90;;;;;;5079856;28;20189;-88
2022/09/29 00:07:44;;;;;;;1.87;1.40;;;6.00;99.90;;;;;;5078976;28;20265;-87
2022/09/29 00:10:10;;;;;;;2.07;1.87;;;6.40;99.90;;;;;;5077239;28;20252;-88
2022/09/29 00:12:36;;;;;;;2.27;1.63;;;6.70;99.90;;;;;;5080527;28;20361;-89
2022/09/29 00:15:03;;;;;;;1.20;1.20;;;6.90;99.90;;;;;;5080231;28;21111;-88
2022/09/29 00:17:28;;;;;;;1.50;1.40;;;7.20;99.90;;;;;;5078245;28;20654;-88
2022/09/29 00:19:54;;;;;;;1.63;1.40;;;7.30;99.90;;;;;;5045705;28;20217;-88
2022/09/29 00:22:20;;;;;;;2.50;1.37;;;7.40;99.90;;;;;;5077508;28;20221;-87
2022/09/29 00:24:46;;;;;;;0.67;0.67;;;7.40;99.90;;;;;;5077837;28;20225;-88
2022/09/29 00:27:15;;;;;;;1.37;1.27;;;7.40;99.90;;;;;;5085373;28;20641;-87
2022/09/29 00:29:40;;;;;;;1.13;1.03;;;7.30;99.90;;;;;;5079167;28;20212;-88
2022/09/29 00:32:06;;;;;;;11.77;1.77;;;7.20;99.90;;;;;;5077245;28;20208;-87
2022/09/29 00:34:32;;;;;;;27.37;1.30;;;6.90;99.90;;;;;;5078959;28;20224;-88
2022/09/29 00:36:58;;;;;;;1.03;1.00;;;6.40;99.90;;;;;;5075572;28;20262;-87
2022/09/29 00:39:24;;;;;;;1.97;1.27;;;6.40;99.90;;;;;;5077160;28;20311;-86
2022/09/29 00:41:49;;;;;;;1.53;1.27;;;6.50;99.90;;;;;;5077599;28;20274;-87
2022/09/29 00:44:15;;;;;;;1.27;1.17;;;6.70;99.90;;;;;;5077417;28;20220;-86
2022/09/29 00:46:58;;;;;;;5.10;2.30;;;6.90;99.90;;;;;;5077355;28;20221;-88
2022/09/29 00:49:27;;;;;;;1.40;1.30;;;7.10;99.90;;;;;;5078259;28;20217;-86
2022/09/29 00:52:07;;;;;;;21.63;1.33;;;7.20;99.90;;;;;;5078285;28;20216;-87
2022/09/29 00:54:39;;;;;;;14.30;2.63;;;7.10;99.90;;;;;;5079124;28;20225;-87
2022/09/29 00:57:07;;;;;;;5.37;1.70;;;6.70;99.90;;;;;;5077826;28;21239;-87
2022/09/29 00:59:45;;;;;;;1.13;1.00;;;6.60;99.90;;;;;;5078109;28;20184;-87
2022/09/29 01:02:12;;;;;;;1.03;0.70;;;6.60;99.90;;;;;;5078469;28;20227;-86
2022/09/29 01:04:39;;;;;;;6.23;1.60;;;6.40;99.90;;;;;;5077503;28;20232;-86
2022/09/29 01:07:07;;;;;;;23.20;1.87;;;6.10;99.90;;;;;;5076615;28;20221;-87
2022/09/29 01:09:37;;;;;;;0.80;0.80;;;5.90;99.90;;;;;;5076517;28;20694;-86
2022/09/29 01:12:03;;;;;;;23.03;2.27;;;5.80;99.90;;;;;;5078606;28;20221;-87
2022/09/29 01:14:31;;;;;;;0.97;0.97;;;6.20;99.90;;;;;;5075764;28;20288;-86
2022/09/29 01:16:58;;;;;;;1.73;1.60;;;6.50;99.90;;;;;;5077601;28;20308;-87
2022/09/29 01:19:43;;;;;;;1.50;1.40;;;6.70;99.90;;;;;;5077943;28;20281;-88
2022/09/29 01:22:17;;;;;;;3.87;1.53;;;6.80;99.90;;;;;;5079274;28;20216;-88
2022/09/29 01:24:57;;;;;;;12.13;1.87;;;6.80;99.90;;;;;;5076641;28;20262;-87
2022/09/29 01:27:54;;;;;;;1.07;1.07;;;6.80;99.90;;;;;;5078878;28;20401;-88
2022/09/29 01:30:40;;;;;;;8.03;1.87;;;6.80;99.90;;;;;;5076720;28;20638;-87
2022/09/29 01:33:18;;;;;;;0.90;0.90;;;6.90;99.90;;;;;;5079698;28;20740;-87
2022/09/29 01:36:20;;;;;;;1.70;1.60;;;6.90;99.90;;;;;;5077438;28;20188;-85
2022/09/29 01:39:13;;;;;;;1.40;1.33;;;7.00;99.90;;;;;;5078883;28;20208;-88
2022/09/29 01:41:45;;;;;;;1.87;1.77;;;7.00;99.90;;;;;;5076906;28;20208;-88
2022/09/29 01:44:30;;;;;;;3.60;1.67;;;7.00;99.90;;;;;;5076348;28;20318;-88
2022/09/29 01:47:02;;;;;;;9.03;2.23;;;7.00;99.90;;;;;;5073994;28;20253;-88
2022/09/29 01:49:33;;;;;;;14.43;1.70;;;7.00;99.90;;;;;;5077010;28;20216;-88
2022/09/29 01:52:10;;;;;;;1.50;0.97;;;7.00;99.90;;;;;;5075427;28;20328;-87
2022/09/29 01:54:46;;;;;;;1.33;1.23;;;7.00;99.90;;;;;;5076945;28;20233;-87
2022/09/29 01:57:45;;;;;;;6.53;1.70;;;7.00;99.90;;;;;;5074597;28;20243;-88
2022/09/29 02:00:14;;;;;;;1.63;1.53;;;7.00;99.90;;;;;;5076288;28;20221;-87
2022/09/29 02:02:47;;;;;;;1.47;1.33;;;7.00;99.90;;;;;;5078629;28;20192;-87
2022/09/29 02:05:20;;;;;;;1.47;1.37;;;7.00;99.90;;;;;;5074223;28;20215;-87
2022/09/29 02:07:46;;;;;;;13.73;1.67;;;7.00;99.90;;;;;;5076462;28;20234;-86
2022/09/29 02:10:26;;;;;;;1.97;1.77;;;7.00;99.90;;;;;;5075489;28;20244;-87
2022/09/29 02:12:55;;;;;;;1.50;1.40;;;7.00;99.90;;;;;;5074845;28;21040;-86
2022/09/29 02:15:29;;;;;;;1.60;1.50;;;6.90;99.90;;;;;;5077442;28;20278;-86
2022/09/29 02:18:00;;;;;;;2.33;1.77;;;6.90;99.90;;;;;;5076837;28;20208;-88
2022/09/29 02:20:26;;;;;;;1.47;1.37;;;6.90;99.90;;;;;;5075962;28;20180;-87
2022/09/29 02:22:51;;;;;;;1.40;1.30;;;6.80;99.90;;;;;;5060079;28;20216;-88
2022/09/29 02:25:18;;;;;;;1.70;1.60;;;6.80;99.90;;;;;;5059429;28;20677;-87
2022/09/29 02:27:47;;;;;;;1.43;1.33;;;6.90;99.90;;;;;;5076386;28;20205;-87
2022/09/29 02:30:13;;;;;;;2.00;1.30;;;6.80;99.90;;;;;;5074051;28;20222;-88
2022/09/29 02:32:39;;;;;;;2.03;1.90;;;6.90;99.90;;;;;;5075235;28;20201;-88
2022/09/29 02:35:07;;;;;;;1.80;1.30;;;6.90;99.90;;;;;;5073959;28;20220;-88
2022/09/29 02:38:15;;;;;;;1.83;1.73;;;6.90;99.90;;;;;;5077793;28;20216;-88
2022/09/29 02:40:52;;;;;;;1.60;1.50;;;6.90;99.90;;;;;;5075732;28;20212;-87
2022/09/29 02:43:43;;;;;;;2.90;1.50;;;6.90;99.90;;;;;;5072676;28;20216;-88
2022/09/29 02:46:08;;;;;;;2.80;1.63;;;6.90;99.90;;;;;;5092774;28;20221;-88
2022/09/29 02:48:52;;;;;;;2.80;2.00;;;6.90;99.90;;;;;;5075772;28;20217;-87
2022/09/29 02:51:45;;;;;;;1.40;1.30;;;6.90;99.90;;;;;;5077757;28;20213;-88
2022/09/29 02:54:10;;;;;;;1.57;1.37;;;6.90;99.90;;;;;;5077026;28;20262;-89
2022/09/29 02:56:51;;;;;;;1.63;1.53;;;6.90;99.90;;;;;;5075136;28;20709;-86
2022/09/29 02:59:52;;;;;;;1.57;1.47;;;6.80;99.90;;;;;;5078826;28;20265;-88
2022/09/29 03:02:26;;;;;;;2.47;2.20;;;6.80;99.90;;;;;;5043561;28;20296;-87
2022/09/29 03:04:52;;;;;;;1.33;1.27;;;6.80;99.90;;;;;;5076215;28;20318;-86
2022/09/29 03:07:19;;;;;;;1.70;1.60;;;6.80;99.90;;;;;;5076714;28;20227;-88
2022/09/29 03:09:45;;;;;;;1.90;1.80;;;6.80;99.90;;;;;;5074299;28;20232;-87
2022/09/29 03:12:11;;;;;;;1.53;1.43;;;6.80;99.90;;;;;;5075036;28;20217;-86
2022/09/29 03:14:37;;;;;;;1.50;1.40;;;6.80;99.90;;;;;;5042609;28;20227;-87
2022/09/29 03:17:03;;;;;;;2.53;2.33;;;6.90;99.90;;;;;;5082406;28;20768;-86
2022/09/29 03:19:28;;;;;;;2.03;1.80;;;6.80;99.90;;;;;;5080573;28;20249;-86
2022/09/29 03:21:54;;;;;;;1.60;1.50;;;6.80;99.90;;;;;;5083297;28;20223;-87
2022/09/29 03:24:20;;;;;;;1.57;1.50;;;6.80;99.90;;;;;;5081628;28;20224;-87
2022/09/29 03:26:46;;;;;;;2.20;2.03;;;6.80;99.90;;;;;;5081620;28;20189;-86
2022/09/29 03:29:11;;;;;;;1.70;1.60;;;6.80;99.90;;;;;;5064067;28;20216;-88
2022/09/29 03:31:40;;;;;;;1.87;1.77;;;6.80;99.90;;;;;;5082571;28;20241;-88
2022/09/29 03:34:06;;;;;;;2.10;2.00;;;6.80;99.90;;;;;;5080759;28;20229;-88
2022/09/29 03:36:32;;;;;;;3.27;2.97;;;6.90;99.90;;;;;;5082387;28;20221;-89
2022/09/29 03:38:57;;;;;;;1.10;0.77;;;6.80;99.90;;;;;;5081907;28;20184;-91
2022/09/29 03:41:23;;;;;;;1.97;1.43;;;6.80;99.90;;;;;;5081984;28;20185;-90
2022/09/29 03:43:49;;;;;;;2.07;1.80;;;6.80;99.90;;;;;;5082057;28;20225;-90
2022/09/29 03:46:15;;;;;;;1.73;1.63;;;6.80;99.90;;;;;;5081834;28;20232;-89
2022/09/29 03:48:41;;;;;;;1.47;1.37;;;6.90;99.90;;;;;;5047270;28;20560;-86
2022/09/29 03:51:09;;;;;;;2.47;2.17;;;6.80;99.90;;;;;;5079714;28;20212;-87
2022/09/29 03:53:35;;;;;;;2.10;1.97;;;6.90;99.90;;;;;;5080657;28;20240;-86
2022/09/29 03:56:02;;;;;;;2.43;1.43;;;6.90;99.90;;;;;;5059558;28;20729;-86
2022/09/29 03:58:28;;;;;;;2.17;1.83;;;6.80;99.90;;;;;;5081102;28;20221;-87
2022/09/29 04:00:53;;;;;;;2.03;1.63;;;6.80;99.90;;;;;;5044724;28;20224;-85
2022/09/29 04:03:20;;;;;;;2.60;2.07;;;6.80;99.90;;;;;;5080472;28;20788;-85
2022/09/29 04:05:47;;;;;;;1.97;1.53;;;6.80;99.90;;;;;;5063596;28;20750;-86
2022/09/29 04:08:14;;;;;;;2.23;1.80;;;6.90;99.90;;;;;;5075038;28;20659;-87
2022/09/29 04:10:40;;;;;;;1.20;1.10;;;6.80;99.90;;;;;;5076476;28;20245;-87
2022/09/29 04:13:07;;;;;;;1.50;1.40;;;6.80;99.90;;;;;;5077977;28;20225;-87
2022/09/29 04:15:33;;;;;;;1.47;1.30;;;6.70;99.90;;;;;;5072533;28;20710;-87
2022/09/29 04:17:59;;;;;;;1.93;1.40;;;6.80;99.90;;;;;;5082144;28;20202;-86
2022/09/29 04:20:25;;;;;;;1.73;1.60;;;6.70;99.90;;;;;;5078949;28;20196;-85
2022/09/29 04:22:51;;;;;;;2.13;2.03;;;6.70;99.90;;;;;;5076940;28;20217;-87
2022/09/29 04:25:17;;;;;;;2.37;2.27;;;6.70;99.90;;;;;;5079443;28;20333;-87
2022/09/29 04:27:43;;;;;;;4.53;1.70;;;6.70;99.90;;;;;;5074379;28;20236;-85
2022/09/29 04:30:09;;;;;;;2.17;1.93;;;6.70;99.90;;;;;;5054878;28;20229;-85
2022/09/29 04:32:35;;;;;;;1.77;1.40;;;6.70;99.90;;;;;;5071378;28;20193;-87
2022/09/29 04:35:01;;;;;;;3.53;2.27;;;6.70;99.90;;;;;;5070385;28;20258;-85
2022/09/29 04:37:27;;;;;;;2.37;1.90;;;6.70;99.90;;;;;;5056559;28;20682;-87
2022/09/29 04:39:53;;;;;;;2.40;2.10;;;6.70;99.90;;;;;;5079657;28;20270;-87
2022/09/29 04:42:19;;;;;;;2.63;2.03;;;6.70;99.90;;;;;;5074655;28;20221;-85
2022/09/29 04:44:45;;;;;;;2.23;1.30;;;6.70;99.90;;;;;;5073089;28;20210;-85
2022/09/29 04:47:11;;;;;;;2.50;2.30;;;6.70;99.90;;;;;;5076350;28;20300;-85
2022/09/29 04:49:37;;;;;;;3.73;2.37;;;6.70;99.90;;;;;;5053615;28;20280;-87
2022/09/29 04:52:03;;;;;;;2.23;1.97;;;6.70;99.90;;;;;;5073449;28;20220;-85
2022/09/29 04:54:32;;;;;;;2.80;2.37;;;6.70;99.90;;;;;;5056446;28;20225;-85
2022/09/29 04:56:59;;;;;;;2.80;1.97;;;6.70;99.90;;;;;;5076636;28;20185;-85
2022/09/29 04:59:25;;;;;;;6.17;1.80;;;6.70;99.90;;;;;;5070365;28;20222;-86
2022/09/29 05:01:51;;;;;;;2.83;2.60;;;6.70;99.90;;;;;;5074493;28;20546;-85
2022/09/29 05:04:17;;;;;;;2.50;2.03;;;6.70;99.90;;;;;;5053135;28;20697;-87
2022/09/29 05:06:42;;;;;;;2.20;2.07;;;6.70;99.90;;;;;;5074081;28;20209;-85
2022/09/29 05:09:08;;;;;;;3.87;3.57;;;6.60;99.90;;;;;;5072055;28;20216;-86
2022/09/29 05:11:34;;;;;;;1.70;1.60;;;6.60;99.90;;;;;;5073661;28;20209;-85
2022/09/29 05:14:00;;;;;;;1.43;1.33;;;6.60;99.90;;;;;;5074083;28;20257;-85
2022/09/29 05:16:26;;;;;;;1.90;1.23;;;6.50;99.90;;;;;;5075881;28;20406;-87
2022/09/29 05:18:52;;;;;;;2.40;1.97;;;6.50;99.90;;;;;;5073007;28;20654;-86
2022/09/29 05:21:17;;;;;;;2.07;1.67;;;6.40;99.90;;;;;;5068343;28;21096;-86
2022/09/29 05:23:43;;;;;;;3.60;2.40;;;6.50;99.90;;;;;;5071246;28;20634;-85
2022/09/29 05:26:10;;;;;;;2.60;2.40;;;6.50;99.90;;;;;;5070000;28;20250;-86
2022/09/29 05:28:37;;;;;;;3.93;3.33;;;6.50;99.90;;;;;;5071587;28;20360;-85
2022/09/29 05:31:04;;;;;;;3.77;2.90;;;6.50;99.90;;;;;;5073845;28;20285;-84
2022/09/29 05:33:31;;;;;;;2.57;2.37;;;6.50;99.90;;;;;;5068323;28;20263;-85
2022/09/29 05:35:57;;;;;;;8.33;3.23;;;6.50;99.90;;;;;;5072612;28;20195;-85
2022/09/29 05:38:23;;;;;;;2.47;1.63;;;6.50;99.90;;;;;;5071888;28;20210;-84
2022/09/29 05:40:52;;;;;;;1.60;1.43;;;6.30;99.90;;;;;;5073108;28;20216;-87
2022/09/29 05:43:21;;;;;;;12.63;2.87;;;6.10;99.90;;;;;;5070418;28;21071;-85
2022/09/29 05:45:47;;;;;;;1.63;1.53;;;5.80;99.90;;;;;;5073629;28;20303;-86
2022/09/29 05:48:13;;;;;;;1.20;1.20;;;5.70;99.90;;;;;;5074774;28;20899;-85
2022/09/29 05:50:42;;;;;;;1.80;1.50;;;5.70;99.90;;;;;;5072952;28;20665;-85
2022/09/29 05:53:08;;;;;;;1.20;1.20;;;5.70;99.90;;;;;;5072708;28;20221;-87
2022/09/29 05:55:37;;;;;;;1.73;1.40;;;5.70;99.90;;;;;;5075200;28;20216;-85
2022/09/29 05:58:05;;;;;;;1.20;1.17;;;5.70;99.90;;;;;;5072150;28;20264;-85
2022/09/29 06:00:32;;;;;;;6.93;1.90;;;5.70;99.90;;;;;;5076673;28;20258;-84
2022/09/29 06:02:59;;;;;;;6.70;3.40;;;5.80;99.90;;;;;;5071592;28;20200;-85
2022/09/29 06:05:25;;;;;;;3.33;2.73;;;6.00;99.90;;;;;;5074423;28;20188;-84
2022/09/29 06:07:51;;;;;;;2.87;2.67;;;6.20;99.90;;;;;;5078640;28;20701;-86
2022/09/29 06:10:17;;;;;;;4.87;2.23;;;6.30;99.90;;;;;;5072341;28;20305;-86
2022/09/29 06:12:43;;;;;;;2.60;1.87;;;6.40;99.90;;;;;;5071780;28;20624;-85
2022/09/29 06:15:10;;;;;;;5.07;2.67;;;6.50;99.90;;;;;;5072569;28;20256;-87
2022/09/29 06:17:36;;;;;;;3.13;1.27;;;6.60;99.90;;;;;;5074858;28;20181;-85
2022/09/29 06:20:03;;;;;;;1.60;1.50;;;6.30;99.90;;;;;;5077640;28;20666;-83
2022/09/29 06:22:29;;;;;;;2.30;2.10;;;6.00;99.90;;;;;;5073155;28;20289;-86
2022/09/29 06:24:55;;;;;;;4.70;2.67;;;5.90;99.90;;;;;;5075270;28;20216;-86
2022/09/29 06:27:20;;;;;;;6.50;2.47;;;6.20;99.90;;;;;;5057827;28;20217;-84
2022/09/29 06:29:46;;;;;;;1.37;1.23;;;6.80;99.90;;;;;;5073620;28;20193;-82
2022/09/29 06:32:12;;;;;;;4.77;2.13;;;7.20;99.90;;;;;;5075174;28;20316;-84
2022/09/29 06:37:33;;;;;;;4.30;2.23;;;7.70;99.90;;;;;;5068342;28;20224;-84
2022/09/29 06:37:33;;;;;;;3.93;3.63;;;8.10;99.90;;;;;;5070938;28;20252;-83
2022/09/29 06:39:59;;;;;;;2.67;2.47;;;8.70;99.90;;;;;;5068608;28;20217;-84
2022/09/29 06:42:25;;;;;;;2.87;2.20;;;9.00;99.90;;;;;;5067971;28;20211;-84
2022/09/29 06:44:51;;;;;;;2.27;2.07;;;9.30;99.90;;;;;;5070796;28;20189;-83
2022/09/29 06:47:16;;;;;;;2.63;1.87;;;9.60;99.90;;;;;;5073785;28;20512;-83
2022/09/29 06:49:42;;;;;;;4.83;3.37;;;9.90;99.90;;;;;;5072558;28;20223;-84
2022/09/29 06:52:08;;;;;;;2.83;2.63;;;10.70;99.90;;;;;;5075499;28;20569;-86
2022/09/29 06:54:33;;;;;;;12.33;4.10;;;11.40;99.90;;;;;;5069981;28;20710;-84
2022/09/29 06:56:59;;;;;;;6.80;4.23;;;12.00;99.90;;;;;;5073324;28;20193;-83
2022/09/29 06:59:25;;;;;;;8.37;5.70;;;12.70;99.90;;;;;;5071758;28;20193;-85
2022/09/29 07:01:51;;;;;;;4.60;4.20;;;13.10;99.90;;;;;;5069504;28;20239;-84
2022/09/29 07:04:17;;;;;;;6.43;4.47;;;13.90;99.90;;;;;;5070436;28;20220;-84
2022/09/29 07:06:44;;;;;;;17.73;6.57;;;14.20;99.90;;;;;;5069569;28;20220;-83
2022/09/29 07:09:14;;;;;;;8.37;4.80;;;14.60;99.90;;;;;;5087969;28;20235;-82
2022/09/29 07:11:45;;;;;;;7.93;5.37;;;14.50;99.90;;;;;;5071964;28;20277;-83
2022/09/29 07:14:12;;;;;;;5.00;3.57;;;14.10;99.90;;;;;;5069444;28;20953;-83
2022/09/29 07:16:38;;;;;;;9.30;4.47;;;13.70;99.90;;;;;;5070269;28;20246;-83
2022/09/29 07:19:03;;;;;;;7.30;3.77;;;13.60;99.90;;;;;;5070659;28;20256;-84
2022/09/29 07:21:29;;;;;;;7.73;5.10;;;13.80;99.90;;;;;;5055089;28;20221;-82
2022/09/29 07:23:55;;;;;;;4.37;3.70;;;14.70;99.90;;;;;;5069978;28;20647;-82
2022/09/29 07:26:21;;;;;;;12.90;7.07;;;16.40;99.90;;;;;;5076527;28;20200;-83
2022/09/29 07:28:47;;;;;;;13.33;5.80;;;17.70;99.90;;;;;;5071568;28;20236;-83
2022/09/29 07:31:15;;;;;;;10.83;7.10;;;18.70;99.90;;;;;;5069690;28;20213;-83
2022/09/29 07:33:46;;;;;;;8.40;5.90;;;19.60;99.90;;;;;;5083895;28;20738;-86
2022/09/29 07:36:13;;;;;;;13.57;5.57;;;20.90;99.90;;;;;;5080107;28;20704;-84
2022/09/29 07:38:39;;;;;;;6.00;3.87;;;21.80;99.90;;;;;;5068703;28;20275;-85
2022/09/29 07:41:11;;;;;;;5.17;3.33;;;21.90;99.90;;;;;;5052130;28;20685;-84
2022/09/29 07:43:38;;;;;;;4.13;3.23;;;22.50;99.90;;;;;;5069020;28;20221;-86
2022/09/29 07:46:04;;;;;;;3.60;3.30;;;23.10;99.90;;;;;;5070653;28;20229;-86
2022/09/29 07:48:31;;;;;;;6.93;3.80;;;24.00;99.90;;;;;;5072438;28;20697;-85
2022/09/29 07:51:26;;;;;;;3.83;3.30;;;24.70;99.90;;;;;;5065669;28;20190;-84
2022/09/29 07:53:52;;;;;;;4.37;3.57;;;25.10;99.90;;;;;;5056842;28;20283;-85
2022/09/29 07:56:20;;;;;;;4.87;3.43;;;25.20;99.90;;;;;;5052309;28;20193;-86
2022/09/29 07:58:48;;;;;;;4.83;3.30;;;25.40;99.90;;;;;;5069131;28;20217;-85
2022/09/29 08:01:15;;;;;;;5.07;3.47;;;25.60;99.90;;;;;;5074309;28;20293;-85
2022/09/29 08:03:47;;;;;;;3.23;2.90;;;25.40;99.90;;;;;;5074733;28;20290;-85
2022/09/29 08:06:14;;;;;;;6.17;3.90;;;25.20;99.90;;;;;;5070571;28;20659;-85
2022/09/29 08:08:41;;;;;;;5.10;3.20;;;25.80;99.90;;;;;;5076220;28;20189;-86
2022/09/29 08:11:12;;;;;;;6.10;3.73;;;25.10;99.90;;;;;;5075426;28;20232;-86
2022/09/29 08:13:39;;;;;;;4.73;3.87;;;25.40;99.90;;;;;;5077036;28;20627;-86
2022/09/29 08:16:07;;;;;;;4.93;3.73;;;25.90;99.90;;;;;;5075313;28;20728;-86
2022/09/29 08:18:34;;;;;;;6.27;4.53;;;26.30;99.90;;;;;;5073698;28;20247;-86
2022/09/29 08:21:01;;;;;;;6.07;3.83;;;26.60;99.90;;;;;;5071222;28;20220;-87
2022/09/29 08:23:27;;;;;;;3.90;3.45;;;26.40;99.90;;;;;;5081778;28;20273;-87
2022/09/29 08:26:05;;;;;;;7.07;3.95;;;26.50;99.90;;;;;;5070353;28;20221;-89
2022/09/29 08:28:32;;;;;;;4.80;3.30;;;26.50;99.90;;;;;;5073967;28;20220;-88
2022/09/29 08:31:19;;;;;;;5.38;4.20;;;26.10;99.90;;;;;;5073069;28;20217;-86
2022/09/29 08:33:46;;;;;;;5.00;3.45;;;25.90;99.90;;;;;;5072205;28;20320;-86
2022/09/29 08:36:15;;;;;;;4.40;3.50;;;25.90;99.90;;;;;;5074131;28;20225;-87
2022/09/29 08:38:42;;;;;;;3.45;2.95;;;25.40;99.90;;;;;;5080976;28;20211;-87
2022/09/29 08:41:35;;;;;;;7.30;3.80;;;25.40;99.90;;;;;;5076406;28;20316;-86
2022/09/29 08:44:16;;;;;;;3.20;2.90;;;24.90;99.90;;;;;;5078572;28;20578;-87
2022/09/29 08:47:04;;;;;;;4.50;3.17;;;24.90;99.90;;;;;;5075266;28;20224;-86
2022/09/29 08:49:44;;;;;;;4.18;3.03;;;24.90;99.90;;;;;;5077197;28;20570;-86
2022/09/29 08:52:25;;;;;;;4.37;2.90;;;24.20;99.90;;;;;;5071470;28;20554;-87
2022/09/29 08:54:57;;;;;;;4.03;3.10;;;22.80;99.90;;;;;;5074918;28;20224;-87
2022/09/29 08:57:24;;;;;;;5.03;3.10;;;21.50;99.90;;;;;;5075487;28;20223;-86
2022/09/29 08:59:54;;;;;;;3.93;2.77;;;20.60;99.90;;;;;;5074212;28;20193;-86
2022/09/29 09:02:39;;;;;;;3.87;2.73;;;19.90;99.90;;;;;;5074523;28;20212;-86
2022/09/29 09:05:23;;;;;;;4.30;2.73;;;19.30;99.90;;;;;;5071353;28;20228;-85
2022/09/29 09:08:08;;;;;;;3.13;2.30;;;18.50;99.90;;;;;;5075166;28;20212;-87
2022/09/29 09:10:45;;;;;;;3.40;2.73;;;18.20;99.90;;;;;;5076612;28;20778;-88
2022/09/29 09:13:11;;;;;;;4.07;2.90;;;17.70;99.90;;;;;;5074545;28;20232;-85
2022/09/29 09:16:15;;;;;;;3.20;2.73;;;17.40;99.90;;;;;;5089681;28;20237;-86
2022/09/29 09:18:54;;;;;;;4.07;3.10;;;17.10;99.90;;;;;;5077162;28;20212;-87
2022/09/29 09:21:23;;;;;;;3.30;2.00;;;16.80;99.90;;;;;;5077197;28;20209;-87
2022/09/29 09:24:18;;;;;;;2.83;2.40;;;16.60;99.90;;;;;;5074759;28;20654;-88
2022/09/29 09:26:45;;;;;;;4.17;2.23;;;16.30;99.90;;;;;;5050356;28;20197;-87
2022/09/29 09:29:23;;;;;;;2.63;1.73;;;16.30;99.90;;;;;;5055037;28;20253;-87
2022/09/29 09:32:26;;;;;;;2.70;2.07;;;16.20;99.90;;;;;;5068052;28;20269;-87
2022/09/29 09:35:27;;;;;;;3.87;1.73;;;16.50;99.90;;;;;;5039977;28;20267;-87
2022/09/29 09:37:54;;;;;;;2.93;2.37;;;16.70;99.90;;;;;;5073126;28;20244;-86
2022/09/29 09:40:26;;;;;;;2.43;2.13;;;16.90;99.90;;;;;;5072615;28;20243;-86
2022/09/29 09:43:05;;;;;;;3.63;2.77;;;17.90;99.90;;;;;;5071054;28;20765;-86
2022/09/29 09:45:57;;;;;;;2.80;2.03;;;18.60;99.90;;;;;;5074905;28;20775;-86
2022/09/29 09:48:41;;;;;;;1.23;1.13;;;20.10;99.90;;;;;;5074136;28;20674;-87
2022/09/29 09:51:45;;;;;;;1.43;0.80;;;20.30;99.90;;;;;;5071833;28;20675;-87
2022/09/29 09:54:25;;;;;;;1.63;1.50;;;20.90;99.90;;;;;;5045779;28;20236;-86
2022/09/29 09:56:51;;;;;;;1.40;1.00;;;21.90;99.90;;;;;;5070162;28;20256;-88
2022/09/29 09:59:45;;;;;;;2.53;1.27;;;22.30;99.90;;;;;;5073986;28;20269;-87
2022/09/29 10:02:20;;;;;;;1.07;1.07;;;22.70;99.90;;;;;;5076740;28;20220;-87
2022/09/29 10:04:51;;;;;;;0.87;0.87;;;22.70;99.90;;;;;;5071449;28;20212;-86
2022/09/29 10:07:21;;;;;;;1.30;1.20;;;23.20;99.90;;;;;;5073556;28;20224;-86
2022/09/29 10:09:47;;;;;;;1.20;1.03;;;24.30;99.90;;;;;;5073485;28;20252;-86
2022/09/29 10:12:22;;;;;;;0.70;0.70;;;24.60;99.90;;;;;;5071522;28;20228;-86
2022/09/29 10:15:39;;;;;;;1.37;0.70;;;25.20;99.90;;;;;;5068528;28;20309;-85
2022/09/29 10:18:20;;;;;;;1.63;1.00;;;25.50;99.90;;;;;;4973538;28;20275;-86
2022/09/29 10:20:46;;;;;;;0.57;0.57;;;25.00;99.90;;;;;;4988958;28;20222;-85
2022/09/29 10:23:31;;;;;;;0.63;0.63;;;24.70;99.90;;;;;;5042922;28;20209;-87
2022/09/29 10:26:14;;;;;;;1.02;0.82;;;22.70;99.90;;;;;;5070643;28;20210;-87
2022/09/29 10:28:44;;;;;;;1.25;1.02;;;22.10;99.90;;;;;;5075428;28;20220;-86
2022/09/29 10:31:36;;;;;;;1.43;1.27;;;22.00;99.90;;;;;;5073790;28;20213;-86
2022/09/29 10:34:14;;;;;;;4.00;0.80;;;20.70;99.90;;;;;;5063498;28;20236;-87
2022/09/29 10:36:51;;;;;;;0.60;0.60;;;19.80;99.90;;;;;;5072880;28;20272;-87
2022/09/29 10:39:35;;;;;;;3.00;0.50;;;18.10;99.90;;;;;;5074221;28;20688;-85
2022/09/29 10:42:03;;;;;;;1.17;0.70;;;16.80;99.90;;;;;;5071940;28;20217;-85
2022/09/29 10:44:32;;;;;;;0.83;0.67;;;16.60;99.90;;;;;;5054573;28;20194;-85
2022/09/29 10:46:58;;;;;;;2.53;0.60;;;16.40;99.90;;;;;;5074482;28;20332;-87
2022/09/29 10:49:28;;;;;;;2.03;0.67;;;16.20;99.90;;;;;;5067498;28;20265;-87
2022/09/29 10:52:03;;;;;;;0.67;0.60;;;16.20;99.90;;;;;;5087457;28;20299;-85
2022/09/29 10:54:36;;;;;;;0.70;0.70;;;15.90;99.90;;;;;;5087445;28;20335;-87
2022/09/29 10:57:15;;;;;;;0.53;0.47;;;16.00;99.90;;;;;;5076560;28;20207;-85
2022/09/29 10:59:52;;;;;;;2.20;0.80;;;16.70;99.90;;;;;;5070249;28;20234;-86
2022/09/29 11:02:30;;;;;;;1.23;0.40;;;18.20;99.90;;;;;;5068829;28;20662;-88
2022/09/29 11:05:00;;;;;;;0.87;0.70;;;19.50;99.90;;;;;;5069904;28;20254;-87
2022/09/29 11:07:27;;;;;;;0.30;0.30;;;20.60;99.90;;;;;;5072754;28;20219;-86
2022/09/29 11:09:54;;;;;;;0.53;0.53;;;21.40;99.90;;;;;;5070805;28;20225;-87
2022/09/29 11:12:28;;;;;;;0.63;0.60;;;22.50;99.90;;;;;;5055716;28;20231;-86
2022/09/29 11:14:54;;;;;;;1.17;0.50;;;21.50;99.90;;;;;;5072914;28;20232;-86
2022/09/29 11:17:24;;;;;;;0.30;0.30;;;21.40;99.90;;;;;;5036716;28;20635;-86
2022/09/29 11:19:52;;;;;;;0.63;0.60;;;22.20;99.90;;;;;;5068891;28;20440;-87
2022/09/29 11:23:13;;;;;;;0.40;0.40;;;22.10;99.90;;;;;;5068526;28;20221;-87
2022/09/29 11:26:01;;;;;;;0.53;0.53;;;21.10;99.90;;;;;;5055699;28;20217;-87
2022/09/29 11:28:30;;;;;;;0.57;0.40;;;20.50;99.90;;;;;;5073391;28;20248;-88
2022/09/29 11:31:14;;;;;;;0.30;0.30;;;19.70;99.90;;;;;;5069406;28;20220;-86
2022/09/29 11:33:40;;;;;;;0.30;0.30;;;19.40;99.90;;;;;;5071954;28;20487;-87
2022/09/29 11:36:18;;;;;;;0.20;0.20;;;18.40;99.90;;;;;;5070826;28;20323;-87
2022/09/29 11:38:53;;;;;;;0.40;0.40;;;17.90;99.90;;;;;;5079063;28;20181;-89
2022/09/29 11:41:24;;;;;;;0.53;0.23;;;18.60;99.90;;;;;;5077010;28;20499;-90
2022/09/29 11:43:54;;;;;;;0.30;0.23;;;19.50;99.90;;;;;;5076442;28;20841;-87
2022/09/29 11:46:27;;;;;;;0.43;0.33;;;19.20;99.90;;;;;;5075082;28;20243;-87
2022/09/29 11:49:11;;;;;;;0.40;0.40;;;19.60;99.90;;;;;;5075982;28;20292;-86
2022/09/29 11:52:07;;;;;;;0.50;0.50;;;19.20;99.90;;;;;;5072605;28;20654;-86
2022/09/29 11:54:48;;;;;;;1.30;0.40;;;19.00;99.90;;;;;;5074372;28;20320;-87
2022/09/29 11:57:29;;;;;;;0.30;0.30;;;18.50;99.90;;;;;;5072548;28;20244;-88
2022/09/29 12:00:07;;;;;;;0.53;0.53;;;17.70;99.90;;;;;;5079337;28;20258;-87
2022/09/29 12:03:12;;;;;;;0.30;0.30;;;17.50;99.90;;;;;;5075168;28;20631;-86
2022/09/29 12:05:48;;;;;;;0.20;0.20;;;17.40;99.90;;;;;;5078666;28;20205;-87
2022/09/29 12:08:17;;;;;;;0.63;0.30;;;17.60;99.90;;;;;;5091054;28;20207;-87
2022/09/29 12:11:01;;;;;;;0.33;0.33;;;17.70;99.90;;;;;;5075251;28;20985;-88
2022/09/29 12:13:44;;;;;;;0.40;0.37;;;17.60;99.90;;;;;;5072925;28;20696;-88
2022/09/29 12:16:35;;;;;;;0.47;0.47;;;17.50;99.90;;;;;;5076930;28;20217;-87
2022/09/29 12:19:08;;;;;;;0.33;0.33;;;17.70;99.90;;;;;;5067190;28;20766;-88
2022/09/29 12:21:41;;;;;;;0.20;0.20;;;17.50;99.90;;;;;;5074565;28;20220;-86
2022/09/29 12:24:29;;;;;;;0.20;0.20;;;17.40;99.90;;;;;;5072951;28;20220;-88
2022/09/29 12:26:55;;;;;;;0.63;0.50;;;17.50;99.90;;;;;;5072973;28;20180;-87
2022/09/29 12:29:24;;;;;;;0.40;0.40;;;17.60;99.90;;;;;;5074854;28;20193;-88
2022/09/29 12:31:53;;;;;;;0.47;0.30;;;17.50;99.90;;;;;;5076958;28;20578;-86
2022/09/29 12:34:26;;;;;;;0.30;0.30;;;17.60;99.90;;;;;;5075694;28;20391;-87
2022/09/29 12:37:04;;;;;;;0.27;0.27;;;17.70;99.90;;;;;;5073167;28;20263;-86
2022/09/29 12:39:38;;;;;;;6.80;0.40;;;17.90;99.90;;;;;;5072341;28;20627;-86
2022/09/29 12:42:16;;;;;;;0.50;0.37;;;17.90;99.90;;;;;;5073438;28;20268;-88
2022/09/29 12:45:19;;;;;;;0.17;0.17;;;18.00;99.90;;;;;;5072654;28;20203;-87
2022/09/29 12:48:03;;;;;;;1.43;0.33;;;18.10;99.90;;;;;;5073788;28;20212;-87
2022/09/29 12:50:43;;;;;;;0.70;0.20;;;18.20;99.90;;;;;;5075091;28;20181;-87
2022/09/29 12:53:14;;;;;;;1.47;0.33;;;18.30;99.90;;;;;;5071100;28;20224;-86
2022/09/29 12:55:50;;;;;;;0.30;0.30;;;18.50;99.90;;;;;;5077849;28;20236;-86
2022/09/29 12:58:41;;;;;;;0.30;0.30;;;18.50;99.90;;;;;;5075974;28;20303;-87
2022/09/29 13:01:26;;;;;;;0.30;0.30;;;18.10;99.90;;;;;;5076373;28;20239;-88
2022/09/29 13:04:19;;;;;;;0.30;0.30;;;17.60;99.90;;;;;;5077111;28;20241;-89
2022/09/29 13:07:14;;;;;;;0.40;0.40;;;17.50;99.90;;;;;;5077734;28;20350;-87
2022/09/29 13:10:18;;;;;;;0.20;0.20;;;17.10;99.90;;;;;;5093529;28;20212;-90
2022/09/29 13:13:20;;;;;;;0.20;0.20;;;17.00;99.90;;;;;;5077330;28;20221;-89
2022/09/29 13:16:09;;;;;;;1.87;0.30;;;17.40;99.90;;;;;;5076900;28;20236;-87
2022/09/29 13:18:47;;;;;;;0.20;0.20;;;17.70;99.90;;;;;;5062954;28;20303;-86